createdAt,value
2022-11-18T00:02:12.129Z,2.50
2022-11-18T00:04:39.614Z,2.70
2022-11-18T00:07:07.126Z,2.50
2022-11-18T00:09:34.655Z,2.80
2022-11-18T00:12:02.113Z,2.90
2022-11-18T00:14:29.678Z,2.60
2022-11-18T00:16:58.240Z,3.03
2022-11-18T00:19:32.983Z,2.90
2022-11-18T00:22:00.522Z,2.97
2022-11-18T00:24:28.104Z,3.10
2022-11-18T00:26:55.974Z,3.17
2022-11-18T00:29:23.900Z,3.03
2022-11-18T00:31:51.390Z,2.90
2022-11-18T00:34:19.310Z,2.77
2022-11-18T00:36:47.251Z,2.90
2022-11-18T00:39:16.196Z,3.70
2022-11-18T00:41:44.538Z,3.10
2022-11-18T00:44:12.055Z,2.90
2022-11-18T00:46:39.534Z,3.20
2022-11-18T00:49:06.961Z,2.70
2022-11-18T00:51:34.544Z,3.10
2022-11-18T00:54:02.022Z,3.50
2022-11-18T00:56:29.608Z,3.40
2022-11-18T00:58:57.121Z,3.60
2022-11-18T01:01:24.701Z,3.30
2022-11-18T01:03:52.485Z,3.40
2022-11-18T01:06:19.951Z,3.07
2022-11-18T01:08:47.560Z,3.17
2022-11-18T01:11:15.187Z,3.43
2022-11-18T01:13:42.663Z,3.17
2022-11-18T01:16:10.163Z,3.20
2022-11-18T01:18:37.656Z,3.60
2022-11-18T01:21:05.189Z,3.90
2022-11-18T01:23:32.696Z,3.17
2022-11-18T01:26:04.744Z,3.37
2022-11-18T01:28:32.308Z,2.93
2022-11-18T01:31:04.783Z,3.37
2022-11-18T01:33:32.580Z,3.37
2022-11-18T01:36:00.183Z,3.33
2022-11-18T01:38:27.699Z,3.10
2022-11-18T01:40:55.868Z,3.67
2022-11-18T01:43:24.355Z,3.20
2022-11-18T01:45:52.934Z,2.83
2022-11-18T01:48:23.288Z,3.03
2022-11-18T01:50:56.304Z,3.93
2022-11-18T01:53:28.917Z,3.73
2022-11-18T01:55:57.417Z,3.20
2022-11-18T01:58:45.144Z,3.40
2022-11-18T02:01:12.912Z,3.57
2022-11-18T02:03:40.467Z,2.80
2022-11-18T02:06:09.252Z,3.80
2022-11-18T02:08:37.009Z,3.47
2022-11-18T02:11:05.003Z,3.53
2022-11-18T02:13:32.533Z,3.40
2022-11-18T02:16:06.870Z,2.90
2022-11-18T02:18:37.475Z,2.97
2022-11-18T02:21:10.823Z,3.60
2022-11-18T02:23:51.726Z,3.80
2022-11-18T02:26:25.093Z,3.43
2022-11-18T02:29:05.168Z,3.80
2022-11-18T02:31:48.875Z,3.30
2022-11-18T02:34:18.803Z,3.90
2022-11-18T02:36:55.941Z,3.40
2022-11-18T02:39:28.215Z,3.10
2022-11-18T02:41:56.886Z,3.07
2022-11-18T02:44:25.837Z,3.27
2022-11-18T02:46:55.223Z,3.30
2022-11-18T02:49:49.017Z,3.87
2022-11-18T02:52:17.147Z,3.60
2022-11-18T02:54:46.774Z,3.20
2022-11-18T02:57:16.048Z,3.57
2022-11-18T02:59:43.524Z,3.60
2022-11-18T03:02:15.819Z,3.33
2022-11-18T03:04:43.755Z,2.77
2022-11-18T03:07:14.259Z,2.80
2022-11-18T03:09:43.297Z,3.27
2022-11-18T03:12:29.621Z,3.27
2022-11-18T03:15:03.922Z,3.70
2022-11-18T03:17:31.380Z,3.57
2022-11-18T03:19:58.806Z,3.10
2022-11-18T03:22:42.515Z,3.50
2022-11-18T03:25:12.471Z,3.50
2022-11-18T03:27:47.492Z,3.37
2022-11-18T03:30:18.047Z,3.23
2022-11-18T03:32:48.448Z,3.13
2022-11-18T03:35:18.977Z,3.60
2022-11-18T03:37:47.236Z,4.53
2022-11-18T03:40:25.221Z,3.43
2022-11-18T03:42:56.977Z,3.60
2022-11-18T03:45:27.456Z,3.73
2022-11-18T03:47:57.535Z,3.40
2022-11-18T03:50:34.095Z,4.00
2022-11-18T03:53:02.434Z,3.60
2022-11-18T03:55:38.184Z,3.47
2022-11-18T03:58:12.655Z,3.30
2022-11-18T04:00:48.329Z,3.30
2022-11-18T04:03:15.968Z,3.87
2022-11-18T04:05:44.300Z,3.23
2022-11-18T04:08:14.361Z,3.90
2022-11-18T04:10:53.252Z,3.53
2022-11-18T04:13:30.248Z,3.50
2022-11-18T04:15:58.085Z,3.30
2022-11-18T04:18:25.509Z,3.73
2022-11-18T04:20:53.008Z,3.13
2022-11-18T04:23:20.511Z,3.27
2022-11-18T04:25:47.984Z,3.40
2022-11-18T04:28:15.444Z,3.40
2022-11-18T04:30:42.977Z,3.27
2022-11-18T04:33:10.480Z,3.07
2022-11-18T04:35:38.031Z,3.10
2022-11-18T04:38:05.467Z,2.83
2022-11-18T04:40:32.918Z,2.93
2022-11-18T04:43:00.405Z,3.10
2022-11-18T04:45:27.840Z,3.03
2022-11-18T04:48:00.298Z,3.50
2022-11-18T04:50:30.652Z,3.60
2022-11-18T04:52:58.115Z,3.77
2022-11-18T04:55:25.648Z,3.40
2022-11-18T04:57:53.167Z,3.40
2022-11-18T05:00:20.766Z,3.20
2022-11-18T05:02:48.872Z,3.83
2022-11-18T05:05:16.394Z,3.50
2022-11-18T05:07:43.902Z,3.27
2022-11-18T05:10:11.419Z,3.47
2022-11-18T05:12:38.881Z,2.90
2022-11-18T05:15:06.539Z,3.73
2022-11-18T05:17:35.622Z,3.33
2022-11-18T05:20:03.143Z,3.57
2022-11-18T05:22:30.623Z,3.53
2022-11-18T05:24:58.063Z,3.47
2022-11-18T05:27:25.559Z,3.13
2022-11-18T05:29:53.072Z,3.40
2022-11-18T05:32:20.514Z,3.00
2022-11-18T05:34:47.988Z,3.47
2022-11-18T05:37:15.492Z,3.43
2022-11-18T05:39:43.047Z,2.63
2022-11-18T05:42:10.856Z,3.23
2022-11-18T05:44:38.371Z,3.37
2022-11-18T05:47:05.897Z,3.50
2022-11-18T05:49:33.405Z,3.00
2022-11-18T05:52:00.883Z,2.90
2022-11-18T05:54:28.809Z,3.10
2022-11-18T05:56:56.341Z,2.93
2022-11-18T05:59:23.863Z,3.50
2022-11-18T06:01:51.335Z,2.97
2022-11-18T06:04:25.054Z,2.67
2022-11-18T06:06:55.439Z,3.27
2022-11-18T06:09:25.609Z,3.00
2022-11-18T06:11:56.113Z,3.30
2022-11-18T06:14:26.559Z,3.10
2022-11-18T06:16:56.613Z,2.60
2022-11-18T06:19:24.224Z,3.30
2022-11-18T06:21:51.772Z,2.40
2022-11-18T06:24:19.356Z,2.50
2022-11-18T06:26:47.247Z,2.97
2022-11-18T06:29:19.610Z,2.87
2022-11-18T06:31:50.513Z,2.43
2022-11-18T06:34:17.998Z,2.53
2022-11-18T06:36:45.481Z,3.17
2022-11-18T06:39:12.956Z,2.83
2022-11-18T06:41:40.515Z,2.63
2022-11-18T06:44:07.971Z,2.83
2022-11-18T06:46:35.462Z,2.80
2022-11-18T06:49:02.986Z,2.33
2022-11-18T06:51:30.756Z,2.33
2022-11-18T06:53:58.185Z,3.00
2022-11-18T06:56:26.074Z,3.53
2022-11-18T06:58:57.597Z,3.13
2022-11-18T07:01:29.369Z,3.00
2022-11-18T07:03:58.254Z,3.00
2022-11-18T07:06:27.364Z,3.10
2022-11-18T07:08:55.003Z,3.47
2022-11-18T07:11:23.880Z,3.33
2022-11-18T07:13:51.383Z,3.03
2022-11-18T07:16:23.515Z,3.37
2022-11-18T07:18:51.593Z,3.00
2022-11-18T07:21:23.508Z,3.60
2022-11-18T07:23:51.164Z,3.40
2022-11-18T07:26:19.033Z,3.40
2022-11-18T07:28:46.569Z,3.70
2022-11-18T07:31:15.435Z,3.63
2022-11-18T07:33:43.553Z,4.10
2022-11-18T07:36:12.889Z,3.90
2022-11-18T07:38:40.788Z,3.60
2022-11-18T07:41:12.372Z,3.20
2022-11-18T07:43:40.415Z,3.00
2022-11-18T07:46:12.030Z,3.30
2022-11-18T07:48:42.681Z,3.37
2022-11-18T07:51:10.460Z,3.83
2022-11-18T07:53:38.347Z,3.63
2022-11-18T07:56:06.548Z,4.23
2022-11-18T07:58:34.346Z,3.53
2022-11-18T08:01:31.285Z,3.80
2022-11-18T08:04:04.640Z,3.77
2022-11-18T08:06:33.242Z,3.73
2022-11-18T08:09:00.693Z,3.60
2022-11-18T08:11:28.251Z,3.97
2022-11-18T08:13:55.744Z,3.93
2022-11-18T08:16:24.367Z,4.37
2022-11-18T08:18:52.479Z,4.23
2022-11-18T08:21:20.779Z,4.13
2022-11-18T08:23:52.707Z,3.87
2022-11-18T08:26:20.402Z,3.53
2022-11-18T08:28:48.007Z,4.30
2022-11-18T08:31:19.629Z,4.33
2022-11-18T08:33:47.170Z,3.80
2022-11-18T08:36:19.099Z,4.23
2022-11-18T08:38:46.618Z,4.43
2022-11-18T08:41:25.351Z,5.20
2022-11-18T08:43:52.855Z,5.10
2022-11-18T08:46:21.502Z,4.70
2022-11-18T08:48:49.177Z,5.03
2022-11-18T08:51:16.725Z,4.83
2022-11-18T08:53:44.277Z,3.77
2022-11-18T08:56:20.139Z,3.60
2022-11-18T08:58:47.770Z,3.63
2022-11-18T09:01:15.628Z,4.00
2022-11-18T09:03:43.193Z,4.00
2022-11-18T09:06:10.772Z,3.93
2022-11-18T09:08:38.431Z,3.90
2022-11-18T09:11:19.894Z,3.67
2022-11-18T09:14:32.621Z,3.90
2022-11-18T09:16:35.812Z,3.37
2022-11-18T09:19:24.349Z,3.80
2022-11-18T09:21:50.831Z,4.10
2022-11-18T09:24:18.475Z,3.63
2022-11-18T09:26:46.372Z,4.40
2022-11-18T09:29:13.874Z,3.30
2022-11-18T09:31:41.382Z,4.07
2022-11-18T09:34:08.853Z,3.43
2022-11-18T09:36:36.406Z,3.23
2022-11-18T09:39:04.420Z,3.40
2022-11-18T09:41:31.883Z,3.40
2022-11-18T09:44:02.112Z,3.50
2022-11-18T09:46:48.449Z,3.43
2022-11-18T09:49:17.630Z,2.63
2022-11-18T09:51:47.111Z,3.00
2022-11-18T09:54:21.033Z,2.57
2022-11-18T09:56:49.112Z,2.33
2022-11-18T09:59:18.182Z,2.63
2022-11-18T10:01:46.008Z,3.07
2022-11-18T10:04:18.342Z,3.53
2022-11-18T10:06:46.535Z,2.97
2022-11-18T10:09:13.984Z,2.80
2022-11-18T10:11:48.989Z,3.10
2022-11-18T10:14:36.724Z,2.80
2022-11-18T10:17:04.149Z,3.33
2022-11-18T10:19:31.570Z,3.70
2022-11-18T10:22:01.817Z,2.50
2022-11-18T10:24:33.630Z,2.70
2022-11-18T10:27:01.095Z,3.03
2022-11-18T10:29:28.556Z,2.87
2022-11-18T10:32:05.032Z,2.83
2022-11-18T10:34:33.140Z,2.50
2022-11-18T10:37:05.614Z,2.17
2022-11-18T10:39:33.161Z,2.50
2022-11-18T10:42:18.616Z,2.37
2022-11-18T10:44:46.089Z,2.77
2022-11-18T10:47:22.159Z,2.40
2022-11-18T10:49:49.649Z,2.17
2022-11-18T10:52:17.097Z,1.97
2022-11-18T10:54:44.567Z,2.30
2022-11-18T10:57:12.069Z,2.30
2022-11-18T10:59:47.545Z,1.90
2022-11-18T11:02:32.337Z,2.37
2022-11-18T11:05:02.187Z,2.60
2022-11-18T11:07:31.564Z,2.03
2022-11-18T11:10:02.981Z,1.77
2022-11-18T11:12:32.700Z,2.00
2022-11-18T11:15:20.409Z,2.23
2022-11-18T11:17:53.187Z,2.20
2022-11-18T11:20:22.067Z,2.40
2022-11-18T11:22:49.545Z,2.00
2022-11-18T11:25:24.063Z,1.90
2022-11-18T11:30:56.028Z,2.13
2022-11-18T11:33:29.381Z,2.27
2022-11-18T11:36:32.603Z,1.90
2022-11-18T11:39:04.746Z,2.00
2022-11-18T11:41:40.841Z,2.40
2022-11-18T11:44:26.942Z,2.03
2022-11-18T11:47:03.290Z,2.00
2022-11-18T11:49:38.508Z,2.50
2022-11-18T11:52:15.919Z,2.33
2022-11-18T11:55:01.779Z,2.13
2022-11-18T11:57:29.271Z,1.93
2022-11-18T12:00:03.139Z,2.03
2022-11-18T12:02:54.368Z,2.20
2022-11-18T12:05:24.706Z,1.87
2022-11-18T12:07:54.405Z,2.13
2022-11-18T12:10:28.178Z,2.20
2022-11-18T12:13:14.176Z,2.03
2022-11-18T12:15:41.710Z,1.90
2022-11-18T12:18:09.119Z,1.90
2022-11-18T12:20:45.345Z,2.33
2022-11-18T12:23:14.276Z,2.07
2022-11-18T12:25:50.808Z,2.27
2022-11-18T12:28:25.307Z,2.10
2022-11-18T12:31:12.789Z,2.47
2022-11-18T12:33:47.382Z,2.00
2022-11-18T12:36:31.672Z,2.20
2022-11-18T12:39:00.051Z,2.27
2022-11-18T12:41:39.789Z,2.40
2022-11-18T12:44:07.667Z,2.77
2022-11-18T12:46:35.121Z,2.60
2022-11-18T12:49:28.419Z,2.40
2022-11-18T12:52:02.708Z,3.37
2022-11-18T12:54:32.007Z,2.40
2022-11-18T12:57:13.954Z,2.20
2022-11-18T12:59:41.629Z,2.60
2022-11-18T13:02:11.871Z,2.30
2022-11-18T13:04:44.530Z,2.67
2022-11-18T13:07:14.594Z,3.17
2022-11-18T13:09:42.125Z,2.17
2022-11-18T13:12:17.371Z,2.50
2022-11-18T13:14:45.463Z,2.60
2022-11-18T13:17:36.230Z,2.53
2022-11-18T13:20:03.858Z,2.67
2022-11-18T13:22:31.312Z,2.40
2022-11-18T13:24:58.769Z,2.73
2022-11-18T13:27:42.373Z,2.70
2022-11-18T13:30:13.757Z,2.97
2022-11-18T13:32:45.358Z,2.47
2022-11-18T13:35:15.891Z,2.53
2022-11-18T13:37:53.981Z,2.70
2022-11-18T13:40:22.953Z,3.17
2022-11-18T13:42:50.494Z,2.53
2022-11-18T13:45:18.137Z,2.47
2022-11-18T13:47:48.558Z,2.47
2022-11-18T13:50:16.041Z,2.70
2022-11-18T13:53:00.881Z,2.63
2022-11-18T13:55:29.480Z,2.20
2022-11-18T13:58:01.582Z,2.70
2022-11-18T14:00:30.174Z,2.80
2022-11-18T14:02:59.796Z,2.90
2022-11-18T14:05:27.763Z,2.77
2022-11-18T14:08:06.131Z,3.10
2022-11-18T14:10:39.725Z,2.67
2022-11-18T14:13:26.325Z,2.83
2022-11-18T14:15:55.198Z,3.70
2022-11-18T14:18:39.763Z,4.70
2022-11-18T14:21:07.293Z,4.03
2022-11-18T14:23:35.882Z,3.00
2022-11-18T14:26:05.033Z,2.97
2022-11-18T14:28:33.755Z,3.40
2022-11-18T14:31:22.749Z,2.73
2022-11-18T14:34:08.827Z,2.73
2022-11-18T14:36:36.348Z,3.57
2022-11-18T14:39:26.072Z,3.30
2022-11-18T14:41:54.777Z,3.60
2022-11-18T14:44:23.056Z,3.43
2022-11-18T14:46:51.954Z,3.87
2022-11-18T14:49:20.803Z,2.87
2022-11-18T14:51:48.972Z,3.07
2022-11-18T14:54:23.863Z,3.30
2022-11-18T14:56:53.931Z,3.07
2022-11-18T14:59:21.786Z,3.30
2022-11-18T15:01:49.547Z,3.00
2022-11-18T15:04:17.400Z,11.70
2022-11-18T15:06:45.270Z,10.43
2022-11-18T15:09:13.324Z,9.30
2022-11-18T15:11:40.916Z,6.20
2022-11-18T15:14:08.753Z,5.53
2022-11-18T15:16:36.520Z,4.97
2022-11-18T15:19:05.859Z,4.30
2022-11-18T15:21:33.752Z,4.27
2022-11-18T15:24:01.436Z,5.73
2022-11-18T15:26:36.341Z,5.33
2022-11-18T15:29:04.458Z,4.77
2022-11-18T15:31:31.969Z,4.13
2022-11-18T15:34:03.626Z,3.80
2022-11-18T15:36:34.232Z,4.50
2022-11-18T15:39:01.833Z,7.37
2022-11-18T15:41:30.514Z,5.30
2022-11-18T15:43:58.797Z,5.00
2022-11-18T15:46:27.058Z,4.43
2022-11-18T15:48:55.665Z,5.37
2022-11-18T15:51:23.647Z,4.83
2022-11-18T15:53:51.444Z,4.73
2022-11-18T15:56:21.782Z,4.80
2022-11-18T15:59:02.566Z,5.57
2022-11-18T16:01:31.994Z,4.97
2022-11-18T16:03:59.712Z,5.40
2022-11-18T16:06:27.792Z,4.57
2022-11-18T16:08:59.576Z,5.63
2022-11-18T16:11:28.068Z,4.90
2022-11-18T16:13:59.172Z,5.20
2022-11-18T16:16:26.792Z,6.93
2022-11-18T16:19:14.528Z,6.87
2022-11-18T16:21:43.280Z,6.67
2022-11-18T16:24:14.761Z,6.07
2022-11-18T16:26:42.318Z,6.53
2022-11-18T16:29:11.750Z,6.30
2022-11-18T16:31:40.178Z,6.63
2022-11-18T16:34:07.636Z,5.70
2022-11-18T16:36:35.758Z,6.17
2022-11-18T16:39:10.893Z,5.83
2022-11-18T16:41:39.406Z,7.87
2022-11-18T16:44:07.914Z,8.33
2022-11-18T16:46:36.732Z,6.00
2022-11-18T16:49:04.876Z,6.10
2022-11-18T16:51:33.209Z,5.97
2022-11-18T16:54:02.040Z,5.73
2022-11-18T16:56:30.449Z,6.07
2022-11-18T16:58:58.939Z,5.93
2022-11-18T17:01:29.677Z,5.63
2022-11-18T17:03:57.899Z,6.33
2022-11-18T17:06:25.755Z,5.87
2022-11-18T17:08:53.597Z,5.23
2022-11-18T17:11:21.241Z,5.53
2022-11-18T17:13:52.134Z,4.87
2022-11-18T17:16:23.141Z,5.40
2022-11-18T17:18:54.656Z,5.73
2022-11-18T17:21:22.328Z,5.03
2022-11-18T17:23:50.149Z,4.90
2022-11-18T17:26:19.210Z,4.63
2022-11-18T17:28:46.695Z,4.50
2022-11-18T17:31:15.328Z,4.93
2022-11-18T17:33:43.185Z,3.43
2022-11-18T17:36:11.876Z,2.53
2022-11-18T17:38:40.639Z,2.60
2022-11-18T17:41:09.252Z,2.47
2022-11-18T17:43:36.835Z,2.90
2022-11-18T17:46:04.987Z,2.33
2022-11-18T17:48:32.625Z,1.83
2022-11-18T17:51:06.765Z,1.60
2022-11-18T17:53:34.244Z,1.90
2022-11-18T17:56:04.142Z,1.83
2022-11-18T17:58:31.907Z,1.70
2022-11-18T18:01:07.116Z,1.87
2022-11-18T18:03:34.837Z,2.00
2022-11-18T18:06:06.172Z,1.67
2022-11-18T18:08:34.190Z,2.17
2022-11-18T18:11:02.475Z,1.70
2022-11-18T18:13:30.055Z,1.30
2022-11-18T18:16:01.107Z,1.43
2022-11-18T18:18:29.357Z,2.00
2022-11-18T18:20:57.046Z,3.47
2022-11-18T18:23:24.632Z,2.67
2022-11-18T18:25:52.087Z,2.30
2022-11-18T18:28:19.703Z,2.97
2022-11-18T18:30:47.379Z,4.30
2022-11-18T18:33:14.908Z,3.93
2022-11-18T18:35:42.672Z,4.20
2022-11-18T18:38:10.142Z,3.37
2022-11-18T18:40:37.629Z,1.87
2022-11-18T18:43:05.176Z,2.10
2022-11-18T18:45:32.655Z,1.90
2022-11-18T18:48:03.644Z,2.30
2022-11-18T18:50:32.280Z,2.17
2022-11-18T18:52:59.762Z,2.50
2022-11-18T18:55:27.337Z,2.30
2022-11-18T18:57:54.826Z,2.30
2022-11-18T19:00:22.485Z,2.87
2022-11-18T19:02:50.031Z,2.57
2022-11-18T19:05:17.592Z,4.23
2022-11-18T19:07:45.179Z,3.23
2022-11-18T19:10:12.739Z,4.50
2022-11-18T19:12:40.245Z,6.07
2022-11-18T19:15:08.074Z,4.50
2022-11-18T19:17:35.719Z,3.20
2022-11-18T19:20:03.440Z,3.23
2022-11-18T19:22:32.278Z,2.93
2022-11-18T19:25:00.714Z,3.50
2022-11-18T19:27:28.619Z,3.90
2022-11-18T19:29:56.808Z,3.70
2022-11-18T19:32:24.356Z,4.67
2022-11-18T19:34:51.878Z,6.53
2022-11-18T19:37:19.329Z,6.87
2022-11-18T19:39:46.928Z,9.07
2022-11-18T19:42:14.395Z,6.60
2022-11-18T19:44:41.853Z,6.30
2022-11-18T19:47:09.578Z,5.57
2022-11-18T19:49:37.446Z,4.87
2022-11-18T19:52:04.941Z,7.53
2022-11-18T19:54:32.514Z,6.47
2022-11-18T19:57:00.194Z,5.83
2022-11-18T19:59:27.775Z,6.60
2022-11-18T20:01:55.430Z,7.23
2022-11-18T20:04:23.079Z,7.80
2022-11-18T20:06:50.631Z,7.07
2022-11-18T20:09:18.603Z,9.37
2022-11-18T20:11:46.511Z,10.60
2022-11-18T20:14:15.238Z,9.50
2022-11-18T20:16:42.813Z,11.13
2022-11-18T20:19:11.028Z,11.37
2022-11-18T20:21:38.558Z,10.90
2022-11-18T20:24:06.635Z,10.40
2022-11-18T20:26:35.485Z,8.90
2022-11-18T20:29:03.907Z,10.90
2022-11-18T20:31:31.730Z,10.27
2022-11-18T20:33:59.410Z,10.30
2022-11-18T20:36:28.066Z,9.80
2022-11-18T20:38:56.729Z,10.23
2022-11-18T20:41:24.644Z,9.50
2022-11-18T20:43:52.227Z,10.97
2022-11-18T20:46:21.363Z,11.10
2022-11-18T20:48:49.719Z,11.37
2022-11-18T20:51:18.460Z,11.70
2022-11-18T20:53:46.083Z,12.03
2022-11-18T20:56:14.870Z,11.13
2022-11-18T20:58:42.656Z,10.67
2022-11-18T21:01:16.084Z,11.27
2022-11-18T21:03:44.230Z,10.27
2022-11-18T21:06:14.406Z,10.90
2022-11-18T21:08:43.130Z,10.30
2022-11-18T21:11:11.680Z,11.37
2022-11-18T21:13:39.805Z,11.43
2022-11-18T21:16:07.390Z,10.90
2022-11-18T21:18:34.893Z,10.70
2022-11-18T21:21:02.427Z,11.87
2022-11-18T21:23:29.998Z,13.13
2022-11-18T21:25:57.487Z,13.50
2022-11-18T21:28:27.282Z,11.93
2022-11-18T21:30:54.821Z,11.80
2022-11-18T21:33:22.300Z,10.00
2022-11-18T21:35:49.807Z,10.23
2022-11-18T21:38:17.330Z,7.63
2022-11-18T21:40:44.880Z,13.20
2022-11-18T21:43:12.432Z,12.47
2022-11-18T21:45:39.886Z,11.47
2022-11-18T21:48:08.532Z,11.87
2022-11-18T21:50:36.044Z,10.67
2022-11-18T21:53:03.536Z,11.60
2022-11-18T21:55:31.135Z,10.70
2022-11-18T21:58:02.832Z,9.40
2022-11-18T22:00:34.582Z,9.33
2022-11-18T22:03:02.158Z,9.20
2022-11-18T22:05:29.690Z,8.70
2022-11-18T22:07:57.331Z,6.23
2022-11-18T22:10:24.829Z,6.83
2022-11-18T22:12:52.321Z,9.60
2022-11-18T22:15:20.050Z,8.20
2022-11-18T22:17:47.490Z,7.23
2022-11-18T22:20:15.150Z,7.27
2022-11-18T22:22:42.587Z,4.67
2022-11-18T22:25:10.187Z,5.17
2022-11-18T22:27:37.761Z,5.73
2022-11-18T22:30:05.535Z,6.13
2022-11-18T22:32:33.036Z,7.70
2022-11-18T22:35:00.516Z,8.70
2022-11-18T22:37:31.191Z,7.93
2022-11-18T22:39:58.741Z,8.10
2022-11-18T22:42:26.165Z,6.57
2022-11-18T22:44:53.613Z,6.37
2022-11-18T22:47:21.119Z,8.23
2022-11-18T22:49:52.172Z,5.37
2022-11-18T22:52:22.523Z,7.83
2022-11-18T22:54:49.956Z,8.03
2022-11-18T22:57:17.458Z,9.00
2022-11-18T22:59:44.886Z,8.40
2022-11-18T23:02:12.970Z,9.57
2022-11-18T23:04:40.415Z,10.50
2022-11-18T23:07:07.881Z,11.80
2022-11-18T23:09:35.620Z,9.30
2022-11-18T23:12:03.082Z,8.23
2022-11-18T23:14:30.486Z,9.67
2022-11-18T23:16:58.076Z,8.20
2022-11-18T23:19:25.536Z,10.13
2022-11-18T23:21:53.180Z,11.40
2022-11-18T23:24:20.662Z,12.53
2022-11-18T23:26:48.614Z,12.10
2022-11-18T23:29:16.552Z,9.70
2022-11-18T23:31:45.238Z,10.27
2022-11-18T23:34:13.808Z,12.03
2022-11-18T23:36:41.571Z,10.83
2022-11-18T23:39:09.514Z,8.97
2022-11-18T23:41:37.035Z,8.43
2022-11-18T23:44:05.145Z,9.97
2022-11-18T23:46:33.220Z,9.63
2022-11-18T23:49:00.935Z,13.53
2022-11-18T23:51:28.629Z,13.57
2022-11-18T23:53:56.822Z,10.23
2022-11-18T23:56:25.707Z,11.50
2022-11-18T23:58:54.463Z,10.83
